Terminal Aerodrome Forecast
Issued by NWS Jackson, KY

Home | Current Version | Previous Version | Text Only | Print | Product List | Glossary On
Versions: 1 2 3 4 5 6 7 8 9 10 11 12 13 14 15 16 17 18 19 20 21 22 23 24 25 26
901
FTUS43 KJKL 240521
TAFJKL
TAF
KJKL 240521Z 2406/2506 00000KT 3/4SM BR BKN003
     FM241200 00000KT 3SM BR VCSH OVC008
     FM241400 00000KT 3SM BR VCSH SCT020 OVC025
     FM241600 VRB03KT 3SM SHRA VCTS SCT020CB OVC040
     FM250000 24004KT P6SM VCSH SCT008 BKN040=

USA.gov is the U.S. government's official web portal to all federal, state and local government web resources and services.